createdAt,value
2019-03-01T00:02:25.610Z,69.57
2019-03-01T00:05:34.007Z,63.70
2019-03-01T00:08:10.566Z,72.00
2019-03-01T00:11:03.501Z,76.77
2019-03-01T00:13:58.869Z,75.17
2019-03-01T00:17:07.235Z,67.67
2019-03-01T00:19:54.676Z,86.90
2019-03-01T00:22:46.245Z,76.73
2019-03-01T00:25:49.697Z,72.40
2019-03-01T00:28:34.742Z,82.87
2019-03-01T00:31:30.671Z,76.03
2019-03-01T00:34:30.667Z,73.33
2019-03-01T00:37:39.158Z,70.33
2019-03-01T00:40:16.844Z,71.23
2019-03-01T00:43:14.668Z,77.87
2019-03-01T00:45:44.704Z,71.70
2019-03-01T00:48:15.018Z,76.73
2019-03-01T00:50:45.264Z,67.93
2019-03-01T00:53:15.353Z,75.83
2019-03-01T00:55:45.368Z,64.67
2019-03-01T00:58:15.363Z,71.63
2019-03-01T01:00:48.513Z,81.23
2019-03-01T01:03:19.301Z,69.40
2019-03-01T01:05:49.312Z,70.73
2019-03-01T01:08:20.521Z,77.70
2019-03-01T01:10:51.899Z,79.83
2019-03-01T01:13:22.146Z,76.27
2019-03-01T01:15:52.278Z,83.73
2019-03-01T01:18:22.330Z,83.07
2019-03-01T01:20:52.378Z,81.47
2019-03-01T01:23:25.592Z,83.60
2019-03-01T01:25:55.757Z,84.50
2019-03-01T01:28:25.837Z,84.23
2019-03-01T01:30:55.927Z,72.93
2019-03-01T01:33:26.023Z,82.97
2019-03-01T01:35:56.104Z,81.90
2019-03-01T01:38:26.037Z,72.87
2019-03-01T01:40:56.310Z,73.47
2019-03-01T01:43:26.424Z,73.77
2019-03-01T01:45:56.493Z,93.73
2019-03-01T01:48:26.483Z,76.57
2019-03-01T01:50:56.476Z,82.43
2019-03-01T01:53:26.700Z,75.90
2019-03-01T01:55:56.808Z,78.97
2019-03-01T01:58:31.084Z,85.87
2019-03-01T02:01:01.212Z,80.57
2019-03-01T02:03:31.467Z,82.30
2019-03-01T02:06:01.620Z,84.90
2019-03-01T02:08:31.704Z,88.70
2019-03-01T02:11:02.753Z,89.90
2019-03-01T02:13:32.814Z,79.40
2019-03-01T02:16:03.084Z,88.07
2019-03-01T02:18:33.153Z,77.40
2019-03-01T02:21:03.271Z,86.37
2019-03-01T02:23:33.535Z,77.50
2019-03-01T02:26:03.622Z,86.77
2019-03-01T02:28:33.707Z,73.77
2019-03-01T02:31:04.957Z,75.37
2019-03-01T02:33:35.129Z,74.73
2019-03-01T02:36:05.203Z,75.27
2019-03-01T02:38:35.436Z,88.20
2019-03-01T02:41:06.408Z,83.47
2019-03-01T02:43:36.635Z,83.20
2019-03-01T02:46:06.833Z,84.43
2019-03-01T02:48:36.896Z,87.27
2019-03-01T02:51:07.170Z,79.77
2019-03-01T02:53:37.337Z,82.07
2019-03-01T02:56:08.521Z,81.83
2019-03-01T02:58:38.630Z,80.67
2019-03-01T03:01:08.685Z,87.57
2019-03-01T03:03:38.889Z,74.73
2019-03-01T03:06:26.066Z,83.53
2019-03-01T03:08:56.407Z,77.30
2019-03-01T03:11:26.576Z,88.43
2019-03-01T03:13:56.824Z,75.97
2019-03-01T03:16:28.458Z,77.47
2019-03-01T03:18:58.652Z,73.60
2019-03-01T03:21:28.864Z,80.33
2019-03-01T03:23:59.018Z,81.57
2019-03-01T03:26:30.112Z,88.83
2019-03-01T03:29:00.125Z,82.93
2019-03-01T03:31:30.250Z,70.77
2019-03-01T03:34:00.342Z,81.93
2019-03-01T03:36:30.304Z,81.07
2019-03-01T03:39:00.329Z,80.17
2019-03-01T03:41:30.931Z,88.33
2019-03-01T03:44:00.900Z,81.57
2019-03-01T03:46:30.801Z,85.37
2019-03-01T03:49:02.062Z,95.70
2019-03-01T03:51:32.116Z,79.37
2019-03-01T03:54:02.140Z,81.27
2019-03-01T03:56:32.364Z,79.93
2019-03-01T03:59:02.489Z,94.33
2019-03-01T04:01:32.588Z,86.90
2019-03-01T04:04:02.696Z,87.67
2019-03-01T04:06:32.672Z,81.03
2019-03-01T04:09:04.509Z,77.33
2019-03-01T04:11:36.115Z,86.30
2019-03-01T04:14:06.249Z,86.10
2019-03-01T04:16:36.435Z,80.40
2019-03-01T04:19:06.423Z,80.47
2019-03-01T04:21:36.817Z,86.60
2019-03-01T04:24:06.912Z,75.33
2019-03-01T04:26:37.221Z,76.77
2019-03-01T04:29:07.411Z,69.87
2019-03-01T04:31:37.739Z,89.37
2019-03-01T04:34:09.043Z,89.53
2019-03-01T04:36:39.222Z,79.27
2019-03-01T04:39:09.293Z,91.83
2019-03-01T04:41:39.393Z,89.67
2019-03-01T04:44:09.428Z,79.53
2019-03-01T04:46:39.489Z,86.20
2019-03-01T04:49:09.688Z,79.53
2019-03-01T04:51:40.453Z,87.90
2019-03-01T04:54:10.623Z,85.23
2019-03-01T04:56:40.989Z,76.97
2019-03-01T04:59:11.052Z,81.33
2019-03-01T05:01:41.264Z,76.93
2019-03-01T05:04:12.203Z,78.73
2019-03-01T05:06:42.638Z,88.93
2019-03-01T05:09:12.742Z,72.83
2019-03-01T05:11:42.874Z,75.87
2019-03-01T05:14:14.079Z,73.97
2019-03-01T05:16:44.148Z,81.43
2019-03-01T05:19:16.045Z,80.90
2019-03-01T05:21:46.155Z,89.00
2019-03-01T05:24:16.194Z,92.37
2019-03-01T05:26:46.192Z,85.50
2019-03-01T05:29:16.343Z,80.93
2019-03-01T05:31:46.463Z,81.37
2019-03-01T05:34:16.621Z,84.33
2019-03-01T05:36:49.736Z,83.77
2019-03-01T05:39:19.988Z,80.93
2019-03-01T05:41:50.322Z,84.97
2019-03-01T05:44:20.434Z,81.10
2019-03-01T05:46:50.626Z,76.97
2019-03-01T05:49:20.700Z,77.43
2019-03-01T05:51:50.862Z,83.73
2019-03-01T05:54:23.203Z,78.53
2019-03-01T05:56:53.326Z,81.53
2019-03-01T05:59:25.476Z,78.37
2019-03-01T06:02:21.760Z,69.73
2019-03-01T06:04:56.385Z,86.87
2019-03-01T06:07:56.181Z,95.63
2019-03-01T06:10:43.915Z,72.73
2019-03-01T06:13:37.827Z,78.10
2019-03-01T06:16:46.208Z,83.93
2019-03-01T06:19:51.752Z,82.40
2019-03-01T06:22:32.709Z,84.50
2019-03-01T06:25:25.768Z,80.60
2019-03-01T06:28:07.460Z,71.20
2019-03-01T06:30:54.617Z,86.17
2019-03-01T06:34:03.211Z,85.90
2019-03-01T06:37:01.274Z,79.73
2019-03-01T06:40:00.534Z,77.87
2019-03-01T06:42:52.703Z,72.77
2019-03-01T06:46:01.117Z,61.97
2019-03-01T06:48:50.456Z,71.73
2019-03-01T06:51:28.868Z,78.27
2019-03-01T06:53:55.492Z,65.50
2019-03-01T06:56:25.638Z,64.03
2019-03-01T06:59:01.932Z,64.60
2019-03-01T07:01:35.947Z,62.67
2019-03-01T07:04:15.262Z,76.37
2019-03-01T07:06:48.678Z,63.60
2019-03-01T07:09:18.759Z,67.87
2019-03-01T07:11:48.984Z,59.53
2019-03-01T07:14:21.147Z,74.33
2019-03-01T07:16:51.176Z,59.30
2019-03-01T07:19:21.315Z,72.97
2019-03-01T07:21:51.494Z,65.63
2019-03-01T07:24:21.612Z,58.90
2019-03-01T07:26:51.791Z,65.80
2019-03-01T07:29:22.170Z,63.37
2019-03-01T07:31:52.365Z,55.70
2019-03-01T07:34:22.342Z,69.63
2019-03-01T07:36:52.450Z,59.77
2019-03-01T07:39:22.568Z,67.37
2019-03-01T07:41:52.741Z,57.50
2019-03-01T07:44:23.971Z,53.67
2019-03-01T07:46:54.414Z,68.73
2019-03-01T07:49:24.579Z,54.80
2019-03-01T07:51:54.608Z,74.17
2019-03-01T07:54:24.662Z,60.33
2019-03-01T07:56:54.863Z,65.90
2019-03-01T07:59:24.952Z,56.70
2019-03-01T08:01:56.344Z,57.97
2019-03-01T08:04:28.794Z,55.70
2019-03-01T08:06:58.356Z,58.97
2019-03-01T08:09:28.622Z,57.57
2019-03-01T08:11:58.781Z,58.50
2019-03-01T08:14:31.489Z,58.37
2019-03-01T08:17:00.905Z,68.23
2019-03-01T08:19:32.123Z,68.87
2019-03-01T08:22:02.295Z,59.27
2019-03-01T08:24:32.520Z,52.93
2019-03-01T08:27:06.522Z,60.73
2019-03-01T08:29:34.915Z,60.67
2019-03-01T08:32:05.069Z,53.93
2019-03-01T08:34:35.356Z,56.63
2019-03-01T08:37:05.861Z,57.10
2019-03-01T08:39:39.711Z,56.37
2019-03-01T08:42:10.582Z,45.97
2019-03-01T08:44:40.657Z,58.70
2019-03-01T08:47:10.778Z,59.15
2019-03-01T08:49:40.913Z,49.27
2019-03-01T08:52:11.045Z,47.40
2019-03-01T08:54:41.362Z,52.43
2019-03-01T08:57:11.650Z,43.75
2019-03-01T08:59:41.929Z,47.50
2019-03-01T09:02:12.358Z,50.67
2019-03-01T09:04:50.628Z,44.20
2019-03-01T09:07:14.506Z,42.55
2019-03-01T09:09:44.667Z,47.77
2019-03-01T09:12:15.020Z,49.40
2019-03-01T09:14:46.285Z,47.13
2019-03-01T09:17:16.503Z,40.43
2019-03-01T09:19:46.716Z,44.17
2019-03-01T09:22:16.731Z,41.77
2019-03-01T09:24:46.931Z,45.63
2019-03-01T09:27:17.243Z,46.63
2019-03-01T09:29:47.436Z,45.00
2019-03-01T09:32:17.587Z,41.23
2019-03-01T09:34:49.845Z,45.53
2019-03-01T09:37:20.055Z,46.13
2019-03-01T09:39:53.180Z,45.60
2019-03-01T09:42:22.605Z,39.65
2019-03-01T09:44:52.707Z,43.37
2019-03-01T09:47:22.855Z,39.50
2019-03-01T09:49:56.458Z,39.23
2019-03-01T09:52:26.134Z,43.20
2019-03-01T09:54:56.364Z,44.27
2019-03-01T09:57:26.757Z,37.47
2019-03-01T09:59:56.931Z,38.67
2019-03-01T10:02:26.985Z,38.30
2019-03-01T10:04:57.136Z,37.65
2019-03-01T10:07:27.188Z,34.23
2019-03-01T10:09:58.210Z,32.25
2019-03-01T10:12:28.631Z,29.95
2019-03-01T10:14:58.687Z,40.55
2019-03-01T10:17:28.849Z,42.65
2019-03-01T10:19:58.983Z,32.13
2019-03-01T10:22:29.084Z,37.00
2019-03-01T10:24:59.261Z,31.80
2019-03-01T10:27:29.399Z,38.48
2019-03-01T10:29:59.526Z,31.87
2019-03-01T10:32:30.704Z,29.57
2019-03-01T10:35:00.752Z,31.77
2019-03-01T10:37:31.091Z,30.97
2019-03-01T10:40:01.265Z,32.38
2019-03-01T10:42:33.017Z,30.37
2019-03-01T10:45:03.203Z,36.98
2019-03-01T10:47:33.715Z,26.50
2019-03-01T10:50:05.518Z,25.92
2019-03-01T10:52:35.699Z,21.40
2019-03-01T10:55:07.540Z,27.27
2019-03-01T10:57:37.837Z,26.62
2019-03-01T11:00:16.839Z,25.45
2019-03-01T11:02:47.172Z,31.45
2019-03-01T11:05:18.386Z,27.50
2019-03-01T11:07:49.514Z,29.23
2019-03-01T11:10:29.078Z,22.90
2019-03-01T11:12:59.456Z,27.60
2019-03-01T11:15:29.719Z,21.12
2019-03-01T11:18:00.892Z,33.48
2019-03-01T11:20:31.214Z,23.05
2019-03-01T11:23:01.370Z,22.13
2019-03-01T11:25:31.450Z,20.37
2019-03-01T11:28:01.575Z,25.30
2019-03-01T11:30:31.868Z,24.75
2019-03-01T11:33:02.018Z,31.40
2019-03-01T11:35:33.386Z,22.15
2019-03-01T11:38:03.806Z,26.00
2019-03-01T11:40:35.897Z,24.60
2019-03-01T11:43:07.319Z,19.20
2019-03-01T11:45:39.253Z,26.33
2019-03-01T11:48:09.488Z,23.00
2019-03-01T11:50:40.396Z,24.18
2019-03-01T11:53:10.546Z,20.43
2019-03-01T11:55:40.594Z,24.47
2019-03-01T11:58:11.847Z,21.60
2019-03-01T12:00:51.753Z,28.45
2019-03-01T12:03:15.408Z,22.85
2019-03-01T12:05:45.941Z,55.08
2019-03-01T12:08:16.200Z,32.80
2019-03-01T12:10:46.510Z,20.55
2019-03-01T12:13:18.050Z,26.97
2019-03-01T12:15:48.196Z,22.52
2019-03-01T12:18:18.194Z,25.97
2019-03-01T12:20:48.243Z,21.48
2019-03-01T12:23:18.366Z,28.07
2019-03-01T12:25:48.534Z,24.20
2019-03-01T12:28:18.562Z,24.52
2019-03-01T12:30:48.655Z,27.65
2019-03-01T12:33:18.778Z,26.15
2019-03-01T12:35:48.806Z,18.80
2019-03-01T12:38:18.947Z,24.55
2019-03-01T12:40:49.154Z,22.42
2019-03-01T12:43:19.221Z,21.33
2019-03-01T12:45:49.370Z,20.35
2019-03-01T12:48:19.471Z,23.87
2019-03-01T12:50:49.644Z,20.65
2019-03-01T12:53:19.673Z,24.60
2019-03-01T12:55:49.773Z,23.10
2019-03-01T12:58:19.873Z,20.10
2019-03-01T13:00:50.037Z,21.35
2019-03-01T13:03:21.382Z,21.50
2019-03-01T13:05:51.540Z,22.52
2019-03-01T13:08:21.880Z,26.27
2019-03-01T13:10:52.414Z,20.80
2019-03-01T13:13:23.095Z,20.17
2019-03-01T13:15:53.208Z,23.38
2019-03-01T13:18:23.499Z,22.10
2019-03-01T13:20:53.878Z,23.18
2019-03-01T13:23:24.141Z,25.12
2019-03-01T13:25:54.249Z,21.80
2019-03-01T13:28:25.731Z,28.20
2019-03-01T13:30:55.851Z,21.68
2019-03-01T13:33:26.820Z,20.97
2019-03-01T13:35:59.915Z,16.80
2019-03-01T13:38:33.627Z,23.95
2019-03-01T13:41:03.022Z,26.85
2019-03-01T13:43:33.390Z,22.93
2019-03-01T13:46:04.601Z,26.35
2019-03-01T13:48:34.908Z,21.93
2019-03-01T13:51:05.257Z,22.25
2019-03-01T13:53:38.577Z,19.30
2019-03-01T13:56:10.678Z,24.92
2019-03-01T13:58:40.443Z,23.92
2019-03-01T14:01:10.586Z,22.55
2019-03-01T14:03:41.398Z,20.20
2019-03-01T14:06:11.794Z,20.48
2019-03-01T14:08:42.004Z,19.45
2019-03-01T14:11:15.129Z,12.88
2019-03-01T14:13:44.002Z,16.73
2019-03-01T14:16:17.079Z,15.85
2019-03-01T14:18:47.439Z,11.30
2019-03-01T14:21:17.506Z,7.10
2019-03-01T14:23:47.795Z,6.47
2019-03-01T14:26:18.466Z,7.73
2019-03-01T14:28:49.761Z,3.58
2019-03-01T14:31:20.025Z,8.43
2019-03-01T14:33:51.630Z,7.25
2019-03-01T14:36:22.080Z,6.83
2019-03-01T14:38:52.256Z,5.60
2019-03-01T14:41:22.390Z,4.72
2019-03-01T14:43:52.572Z,6.33
2019-03-01T14:46:22.768Z,4.28
2019-03-01T14:48:52.972Z,5.58
2019-03-01T14:51:23.018Z,7.62
2019-03-01T14:53:53.139Z,6.97
2019-03-01T14:56:31.330Z,3.85
2019-03-01T14:59:11.004Z,4.42
2019-03-01T15:01:46.961Z,4.70
2019-03-01T15:04:17.138Z,10.88
2019-03-01T15:06:47.223Z,13.30
2019-03-01T15:09:20.399Z,4.75
2019-03-01T15:11:49.289Z,5.47
2019-03-01T15:14:19.429Z,10.43
2019-03-01T15:16:49.622Z,6.80
2019-03-01T15:19:19.797Z,7.92
2019-03-01T15:21:51.128Z,4.35
2019-03-01T15:24:21.316Z,6.75
2019-03-01T15:26:51.683Z,10.27
2019-03-01T15:29:22.016Z,4.00
2019-03-01T15:31:55.039Z,6.58
2019-03-01T15:34:27.302Z,7.58
2019-03-01T15:36:59.389Z,9.53
2019-03-01T15:39:29.668Z,10.48
2019-03-01T15:41:59.760Z,7.57
2019-03-01T15:44:30.764Z,8.63
2019-03-01T15:47:00.942Z,7.65
2019-03-01T15:49:33.222Z,11.80
2019-03-01T15:52:03.443Z,7.30
2019-03-01T15:54:35.973Z,3.87
2019-03-01T15:57:05.675Z,6.83
2019-03-01T15:59:35.804Z,5.17
2019-03-01T16:02:05.925Z,6.93
2019-03-01T16:04:48.158Z,10.45
2019-03-01T16:07:18.215Z,9.57
2019-03-01T16:09:48.450Z,10.97
2019-03-01T16:12:18.705Z,7.00
2019-03-01T16:14:48.765Z,9.90
2019-03-01T16:17:21.885Z,6.87
2019-03-01T16:19:53.480Z,7.90
2019-03-01T16:22:23.709Z,8.07
2019-03-01T16:24:54.059Z,6.73
2019-03-01T16:27:24.173Z,13.23
2019-03-01T16:30:06.467Z,10.43
2019-03-01T16:32:41.473Z,10.03
2019-03-01T16:35:16.183Z,9.00
2019-03-01T16:37:44.955Z,7.23
2019-03-01T16:40:15.193Z,7.13
2019-03-01T16:42:46.037Z,6.55
2019-03-01T16:45:17.708Z,7.90
2019-03-01T16:47:48.361Z,6.95
2019-03-01T16:50:19.560Z,15.00
2019-03-01T16:52:49.857Z,9.53
2019-03-01T16:55:19.919Z,11.97
2019-03-01T16:57:52.412Z,6.70
2019-03-01T17:00:40.949Z,9.87
2019-03-01T17:03:16.610Z,5.07
2019-03-01T17:05:43.252Z,8.87
2019-03-01T17:08:13.437Z,8.60
2019-03-01T17:10:43.452Z,4.60
2019-03-01T17:13:13.521Z,7.47
2019-03-01T17:15:45.543Z,7.97
2019-03-01T17:18:15.734Z,10.55
2019-03-01T17:20:45.827Z,13.97
2019-03-01T17:23:15.983Z,12.40
2019-03-01T17:25:47.613Z,10.72
2019-03-01T17:28:23.553Z,6.85
2019-03-01T17:30:51.714Z,8.13
2019-03-01T17:33:23.610Z,9.75
2019-03-01T17:35:53.705Z,6.92
2019-03-01T17:38:23.855Z,8.07
2019-03-01T17:40:54.071Z,8.43
2019-03-01T17:43:26.056Z,6.97
2019-03-01T17:45:57.916Z,8.03
2019-03-01T17:48:29.626Z,11.97
2019-03-01T17:51:01.489Z,10.47
2019-03-01T17:53:31.518Z,8.50
2019-03-01T17:56:01.606Z,10.00
2019-03-01T17:58:31.702Z,9.38
2019-03-01T18:01:02.894Z,15.20
2019-03-01T18:03:33.634Z,8.17
2019-03-01T18:06:03.726Z,9.48
2019-03-01T18:08:35.897Z,7.95
2019-03-01T18:11:08.565Z,7.03
2019-03-01T18:13:37.683Z,10.97
2019-03-01T18:16:07.891Z,9.73
2019-03-01T18:18:38.137Z,10.20
2019-03-01T18:21:10.185Z,11.57
2019-03-01T18:23:40.231Z,9.83
2019-03-01T18:26:11.975Z,10.80
2019-03-01T18:28:41.976Z,11.10
2019-03-01T18:31:12.118Z,11.40
2019-03-01T18:33:42.770Z,8.07
2019-03-01T18:36:13.033Z,11.50
2019-03-01T18:38:43.342Z,11.33
2019-03-01T18:41:13.514Z,10.13
2019-03-01T18:43:45.900Z,6.60
2019-03-01T18:46:19.233Z,8.93
2019-03-01T18:48:47.487Z,14.87
2019-03-01T18:51:19.475Z,8.33
2019-03-01T18:53:49.634Z,7.47
2019-03-01T18:56:20.018Z,6.37
2019-03-01T18:58:50.211Z,10.03
2019-03-01T19:01:20.384Z,7.17
2019-03-01T19:03:52.402Z,5.57
2019-03-01T19:06:22.711Z,5.20
2019-03-01T19:08:52.833Z,4.97
2019-03-01T19:11:23.119Z,5.80
2019-03-01T19:13:55.147Z,6.83
2019-03-01T19:16:25.330Z,5.62
2019-03-01T19:18:57.080Z,7.40
2019-03-01T19:21:27.118Z,11.67
2019-03-01T19:23:57.368Z,11.53
2019-03-01T19:26:27.552Z,9.90
2019-03-01T19:28:59.026Z,9.63
2019-03-01T19:31:29.742Z,7.53
2019-03-01T19:33:59.917Z,8.50
2019-03-01T19:36:30.088Z,16.70
2019-03-01T19:39:01.331Z,5.07
2019-03-01T19:41:33.271Z,6.07
2019-03-01T19:44:03.330Z,6.40
2019-03-01T19:46:33.658Z,7.77
2019-03-01T19:49:04.949Z,10.30
2019-03-01T19:51:37.415Z,6.17
2019-03-01T19:54:08.383Z,11.10
2019-03-01T19:56:38.649Z,5.73
2019-03-01T19:59:08.829Z,9.47
2019-03-01T20:01:38.981Z,8.20
2019-03-01T20:04:09.534Z,6.33
2019-03-01T20:06:43.465Z,10.50
2019-03-01T20:09:12.236Z,5.70
2019-03-01T20:11:42.384Z,9.90
2019-03-01T20:14:12.538Z,13.13
2019-03-01T20:16:42.926Z,16.80
2019-03-01T20:19:13.075Z,14.03
2019-03-01T20:21:44.130Z,8.63
2019-03-01T20:24:15.121Z,7.17
2019-03-01T20:26:46.476Z,11.00
2019-03-01T20:29:16.579Z,13.13
2019-03-01T20:31:46.908Z,7.87
2019-03-01T20:34:17.066Z,9.70
2019-03-01T20:36:49.665Z,14.93
2019-03-01T20:39:19.465Z,6.27
2019-03-01T20:41:49.838Z,6.77
2019-03-01T20:44:20.474Z,5.80
2019-03-01T20:46:50.683Z,7.00
2019-03-01T20:49:21.174Z,6.77
2019-03-01T20:51:52.399Z,5.43
2019-03-01T20:54:25.826Z,9.20
2019-03-01T20:56:54.711Z,4.90
2019-03-01T20:59:24.812Z,5.27
2019-03-01T21:01:55.043Z,6.67
2019-03-01T21:04:25.047Z,4.50
2019-03-01T21:06:55.370Z,5.07
2019-03-01T21:09:25.391Z,5.53
2019-03-01T21:11:57.803Z,6.83
2019-03-01T21:14:28.057Z,4.67
2019-03-01T21:16:59.237Z,8.80
2019-03-01T21:19:29.218Z,6.03
2019-03-01T21:22:01.548Z,8.00
2019-03-01T21:24:32.157Z,4.87
2019-03-01T21:27:05.509Z,8.97
2019-03-01T21:29:35.593Z,5.57
2019-03-01T21:32:05.888Z,6.70
2019-03-01T21:34:38.398Z,5.50
2019-03-01T21:37:07.817Z,5.13
2019-03-01T21:39:37.952Z,5.07
2019-03-01T21:42:08.108Z,5.17
2019-03-01T21:44:38.278Z,6.33
2019-03-01T21:47:12.158Z,7.03
2019-03-01T21:49:45.243Z,6.30
2019-03-01T21:52:15.494Z,8.33
2019-03-01T21:54:48.629Z,5.33
2019-03-01T21:57:17.559Z,7.13
2019-03-01T21:59:49.750Z,16.73
2019-03-01T22:02:20.131Z,12.87
2019-03-01T22:04:51.165Z,8.57
2019-03-01T22:07:21.241Z,9.53
2019-03-01T22:09:51.326Z,7.47
2019-03-01T22:12:24.726Z,11.23
2019-03-01T22:14:54.648Z,11.63
2019-03-01T22:17:24.899Z,14.70
2019-03-01T22:19:56.155Z,11.40
2019-03-01T22:22:27.079Z,8.97
2019-03-01T22:24:58.678Z,12.60
2019-03-01T22:27:29.011Z,12.60
2019-03-01T22:29:59.137Z,8.77
2019-03-01T22:32:29.381Z,8.20
2019-03-01T22:35:03.128Z,6.30
2019-03-01T22:37:32.391Z,5.87
2019-03-01T22:40:04.932Z,6.87
2019-03-01T22:42:34.960Z,7.40
2019-03-01T22:45:05.707Z,11.47
2019-03-01T22:47:36.178Z,5.97
2019-03-01T22:50:08.029Z,7.40
2019-03-01T22:52:38.014Z,7.17
2019-03-01T22:55:09.311Z,10.13
2019-03-01T22:57:39.422Z,6.90
2019-03-01T23:00:19.556Z,8.17
2019-03-01T23:02:51.278Z,6.63
2019-03-01T23:05:21.581Z,8.17
2019-03-01T23:07:51.689Z,10.17
2019-03-01T23:10:22.400Z,10.00
2019-03-01T23:12:52.558Z,6.57
2019-03-01T23:15:22.659Z,5.27
2019-03-01T23:17:52.878Z,7.33
2019-03-01T23:20:26.311Z,7.30
2019-03-01T23:22:54.657Z,5.23
2019-03-01T23:25:24.804Z,7.50
2019-03-01T23:27:54.993Z,7.43
2019-03-01T23:30:25.786Z,9.00
2019-03-01T23:32:56.943Z,6.07
2019-03-01T23:35:27.025Z,6.03
2019-03-01T23:37:57.116Z,7.83
2019-03-01T23:40:27.075Z,8.17
2019-03-01T23:42:57.218Z,8.20
2019-03-01T23:45:27.375Z,10.57
2019-03-01T23:47:57.562Z,10.43
2019-03-01T23:50:27.628Z,10.97
2019-03-01T23:52:58.699Z,7.27
2019-03-01T23:55:29.620Z,8.30
2019-03-01T23:58:05.986Z,11.10
